Time;durP1;ratioP1;P1;durP2;ratioP2;P2;SDS_P1;SDS_P2;PMS_P1;PMS_P2;Temp;Humidity;BMP_temperature;BMP_pressure;BME280_temperature;BME280_humidity;BME280_pressure;Samples;Min_cycle;Max_cycle;Signal;HPM_P1;HPM_P2
2021/12/31 00:01:08;;;;;;;4.70;4.13;;;12.50;99.90;;;;;;5072244;28;20507;-73
2021/12/31 00:03:34;;;;;;;6.18;4.35;;;12.50;99.90;;;;;;5072950;28;20040;-73
2021/12/31 00:06:01;;;;;;;6.03;4.70;;;12.50;99.90;;;;;;5072096;28;20044;-74
2021/12/31 00:08:27;;;;;;;5.07;3.85;;;12.60;99.90;;;;;;5072176;28;20094;-74
2021/12/31 00:10:59;;;;;;;5.50;3.65;;;12.60;99.90;;;;;;5072879;28;20049;-74
2021/12/31 00:13:26;;;;;;;6.20;3.97;;;12.60;99.90;;;;;;5072533;28;20049;-74
2021/12/31 00:15:54;;;;;;;8.77;3.78;;;12.60;99.90;;;;;;5071737;28;20048;-72
2021/12/31 00:18:20;;;;;;;5.90;4.00;;;12.60;99.90;;;;;;5072282;28;20473;-72
2021/12/31 00:20:47;;;;;;;4.72;3.38;;;12.50;99.90;;;;;;5072371;28;20061;-72
2021/12/31 00:23:16;;;;;;;5.55;3.83;;;12.50;99.90;;;;;;5072728;28;20040;-72
2021/12/31 00:25:44;;;;;;;5.32;3.67;;;12.50;99.90;;;;;;5071526;28;20044;-72
2021/12/31 00:28:12;;;;;;;4.93;3.60;;;12.50;99.90;;;;;;5072233;28;20051;-72
2021/12/31 00:30:40;;;;;;;7.93;3.67;;;12.50;99.90;;;;;;5071913;28;20130;-72
2021/12/31 00:33:09;;;;;;;5.13;4.00;;;12.50;99.90;;;;;;5072331;28;20158;-72
2021/12/31 00:35:37;;;;;;;5.07;4.03;;;12.50;99.90;;;;;;5071269;28;20044;-72
2021/12/31 00:38:04;;;;;;;5.32;4.03;;;12.50;99.90;;;;;;5071907;28;20499;-72
2021/12/31 00:40:31;;;;;;;5.13;4.30;;;12.50;99.90;;;;;;5072186;28;20040;-71
2021/12/31 00:42:58;;;;;;;6.65;4.18;;;12.40;99.90;;;;;;5072661;28;20045;-73
2021/12/31 00:45:25;;;;;;;7.53;4.32;;;12.50;99.90;;;;;;5071138;28;20098;-72
2021/12/31 00:47:52;;;;;;;12.02;4.30;;;12.50;99.90;;;;;;5071768;28;20328;-72
2021/12/31 00:50:20;;;;;;;6.43;4.90;;;12.40;99.90;;;;;;5071839;28;20044;-71
2021/12/31 00:52:47;;;;;;;6.00;4.68;;;12.40;99.90;;;;;;5071981;28;20045;-72
2021/12/31 00:55:14;;;;;;;8.63;5.32;;;12.40;99.90;;;;;;5071291;28;20508;-73
2021/12/31 00:57:41;;;;;;;7.50;5.10;;;12.40;99.90;;;;;;5071567;28;20071;-73
2021/12/31 01:00:10;;;;;;;10.38;6.40;;;12.40;99.90;;;;;;5071684;28;20052;-73
2021/12/31 01:02:38;;;;;;;8.35;5.55;;;12.40;99.90;;;;;;5071712;28;20044;-74
2021/12/31 01:05:05;;;;;;;7.03;5.18;;;12.50;99.90;;;;;;5071214;28;20118;-74
2021/12/31 01:07:33;;;;;;;9.10;4.97;;;12.50;99.90;;;;;;5071737;28;20040;-76
2021/12/31 01:10:01;;;;;;;7.45;5.43;;;12.50;99.90;;;;;;5071744;28;20052;-73
2021/12/31 01:12:28;;;;;;;7.28;5.80;;;12.50;99.90;;;;;;5074846;28;20080;-71
2021/12/31 01:14:59;;;;;;;8.38;5.75;;;12.50;99.90;;;;;;5074704;28;20143;-71
2021/12/31 01:17:44;;;;;;;7.22;5.28;;;12.50;99.90;;;;;;5075386;28;20049;-73
2021/12/31 01:20:12;;;;;;;7.65;4.97;;;12.60;99.90;;;;;;5075341;28;20052;-72
2021/12/31 01:22:40;;;;;;;12.57;6.60;;;12.60;99.90;;;;;;5075344;28;20401;-73
2021/12/31 01:25:08;;;;;;;8.63;6.78;;;12.60;99.90;;;;;;5074907;28;20462;-74
2021/12/31 01:27:36;;;;;;;7.88;5.43;;;12.60;99.90;;;;;;5074913;28;20481;-73
2021/12/31 01:30:05;;;;;;;8.85;6.53;;;12.60;99.90;;;;;;5075044;28;20451;-74
2021/12/31 01:32:31;;;;;;;16.13;9.07;;;12.60;99.90;;;;;;5075200;28;20048;-74
2021/12/31 01:34:58;;;;;;;6.88;4.90;;;12.60;99.90;;;;;;5074448;28;20044;-73
2021/12/31 01:37:25;;;;;;;6.05;4.47;;;12.60;99.90;;;;;;5075001;28;20041;-73
2021/12/31 01:39:54;;;;;;;5.63;4.68;;;12.60;99.90;;;;;;5074720;28;20053;-72
2021/12/31 01:42:27;;;;;;;6.60;4.63;;;12.60;99.90;;;;;;5074684;28;20049;-71
2021/12/31 01:44:57;;;;;;;9.38;4.90;;;12.70;99.90;;;;;;5074458;28;21784;-71
2021/12/31 01:47:33;;;;;;;6.15;4.82;;;12.70;99.90;;;;;;5074698;28;20048;-72
2021/12/31 01:50:05;;;;;;;5.50;4.90;;;12.70;99.90;;;;;;5074777;28;20056;-72
2021/12/31 01:52:32;;;;;;;6.93;4.25;;;12.70;99.90;;;;;;5074605;28;20048;-72
2021/12/31 01:55:00;;;;;;;6.25;4.82;;;12.70;99.90;;;;;;5074340;28;20044;-73
2021/12/31 01:57:28;;;;;;;5.75;4.60;;;12.70;99.90;;;;;;5074585;28;20041;-72
2021/12/31 01:59:55;;;;;;;6.63;4.20;;;12.70;99.90;;;;;;5074632;28;20052;-73
2021/12/31 02:02:22;;;;;;;6.53;4.97;;;12.70;99.90;;;;;;5074591;28;20420;-73
2021/12/31 02:04:50;;;;;;;6.65;5.07;;;12.70;99.90;;;;;;5073887;28;20049;-74
2021/12/31 02:07:16;;;;;;;4.93;3.72;;;12.80;99.90;;;;;;5074519;28;20094;-74
2021/12/31 02:09:48;;;;;;;6.32;4.55;;;12.80;99.90;;;;;;5074263;28;20102;-72
2021/12/31 02:12:17;;;;;;;4.03;3.65;;;12.80;99.90;;;;;;5074360;28;20051;-73
2021/12/31 02:14:45;;;;;;;4.18;3.45;;;12.90;99.90;;;;;;5073575;28;20044;-72
2021/12/31 02:17:11;;;;;;;5.38;3.63;;;12.90;99.90;;;;;;5074189;28;20106;-72
2021/12/31 02:19:39;;;;;;;3.13;2.80;;;12.90;99.90;;;;;;5073967;28;20044;-72
2021/12/31 02:22:08;;;;;;;3.83;3.40;;;12.90;99.90;;;;;;5073870;28;20159;-73
2021/12/31 02:24:36;;;;;;;3.38;2.78;;;12.90;99.90;;;;;;5073938;28;20052;-73
2021/12/31 02:27:03;;;;;;;4.85;4.00;;;12.90;99.90;;;;;;5074511;28;20044;-73
2021/12/31 02:29:30;;;;;;;4.38;3.50;;;12.90;99.90;;;;;;5075081;28;20052;-74
2021/12/31 02:31:57;;;;;;;4.25;2.85;;;12.90;99.90;;;;;;5075080;28;20068;-74
2021/12/31 02:34:23;;;;;;;3.92;3.53;;;12.80;99.90;;;;;;5075143;28;20447;-73
2021/12/31 02:36:51;;;;;;;4.13;3.22;;;12.80;99.90;;;;;;5075046;28;20111;-71
2021/12/31 02:39:19;;;;;;;3.70;2.70;;;12.80;99.90;;;;;;5074030;28;20071;-72
2021/12/31 02:41:46;;;;;;;3.42;2.58;;;12.80;99.90;;;;;;5073920;28;20101;-72
2021/12/31 02:44:12;;;;;;;4.85;3.17;;;12.80;99.90;;;;;;5073128;28;20074;-71
2021/12/31 02:46:39;;;;;;;5.32;3.42;;;12.80;99.90;;;;;;5073462;28;20053;-72
2021/12/31 02:49:06;;;;;;;5.38;4.10;;;12.70;99.90;;;;;;5073938;28;20118;-71
2021/12/31 02:51:33;;;;;;;6.85;4.93;;;12.70;99.90;;;;;;5072363;28;20052;-72
2021/12/31 02:54:02;;;;;;;6.65;3.50;;;12.70;99.90;;;;;;5073307;28;20564;-72
2021/12/31 02:56:30;;;;;;;5.05;4.00;;;12.70;99.90;;;;;;5073530;28;20067;-71
2021/12/31 02:58:58;;;;;;;8.27;4.50;;;12.70;99.90;;;;;;5073395;28;20098;-73
2021/12/31 03:01:25;;;;;;;5.78;3.88;;;12.70;99.90;;;;;;5073134;28;20051;-72
2021/12/31 03:03:54;;;;;;;5.18;3.90;;;12.80;99.90;;;;;;5073616;28;20044;-71
2021/12/31 03:06:22;;;;;;;4.70;3.28;;;12.80;99.90;;;;;;5072958;28;20048;-72
2021/12/31 03:08:49;;;;;;;6.13;3.75;;;12.80;99.90;;;;;;5073284;28;20044;-73
2021/12/31 03:11:20;;;;;;;4.95;3.80;;;12.80;99.90;;;;;;5073332;28;20044;-72
2021/12/31 03:13:51;;;;;;;6.45;4.53;;;12.80;99.90;;;;;;5072823;28;20045;-72
2021/12/31 03:16:19;;;;;;;;;;;12.90;99.90;;;;;;5073046;28;20048;-72
2021/12/31 03:18:46;;;;;;;6.85;4.00;;;12.80;99.90;;;;;;5072855;28;19943;-73
2021/12/31 03:21:21;;;;;;;5.65;3.80;;;12.90;99.90;;;;;;5072870;28;20045;-73
2021/12/31 03:23:48;;;;;;;6.25;5.00;;;12.90;99.90;;;;;;5072978;28;20044;-72
2021/12/31 03:26:14;;;;;;;6.57;3.90;;;12.90;99.90;;;;;;5072275;28;20045;-73
2021/12/31 03:28:41;;;;;;;8.27;4.65;;;12.90;99.90;;;;;;5073097;28;20078;-72
2021/12/31 03:31:09;;;;;;;6.13;4.40;;;12.90;99.90;;;;;;5072684;28;20044;-72
2021/12/31 03:33:36;;;;;;;6.03;4.97;;;12.90;99.90;;;;;;5072521;28;20102;-72
2021/12/31 03:36:02;;;;;;;5.63;4.43;;;12.80;99.90;;;;;;5072120;28;20083;-72
2021/12/31 03:38:29;;;;;;;6.20;4.30;;;12.90;99.90;;;;;;5072508;28;20048;-73
2021/12/31 03:40:55;;;;;;;5.25;4.35;;;12.90;99.90;;;;;;5072444;28;20048;-73
2021/12/31 03:43:22;;;;;;;7.57;5.07;;;12.90;99.90;;;;;;5072593;28;20044;-72
2021/12/31 03:45:51;;;;;;;7.05;4.90;;;12.90;99.90;;;;;;5072146;28;20139;-74
2021/12/31 03:48:19;;;;;;;5.72;4.13;;;13.00;99.90;;;;;;5072413;28;20051;-74
2021/12/31 03:50:46;;;;;;;5.90;4.45;;;12.90;99.90;;;;;;5072585;28;20070;-72
2021/12/31 03:53:14;;;;;;;4.97;4.10;;;12.90;99.90;;;;;;5072373;28;20044;-75
2021/12/31 03:55:41;;;;;;;6.78;4.47;;;12.90;99.90;;;;;;5072384;28;20562;-73
2021/12/31 03:58:07;;;;;;;8.13;4.57;;;13.00;99.90;;;;;;5072192;28;20473;-75
2021/12/31 04:00:34;;;;;;;8.70;4.93;;;13.00;99.90;;;;;;5072329;28;20178;-74
2021/12/31 04:03:05;;;;;;;5.13;4.38;;;13.00;99.90;;;;;;5072307;28;20049;-74
2021/12/31 04:05:33;;;;;;;5.68;4.20;;;13.00;99.90;;;;;;5071596;28;20044;-74
2021/12/31 04:08:00;;;;;;;6.05;4.85;;;12.90;99.90;;;;;;5072051;28;20041;-75
2021/12/31 04:10:28;;;;;;;6.55;4.55;;;12.90;99.90;;;;;;5072133;28;20094;-73
2021/12/31 04:12:55;;;;;;;5.30;4.15;;;12.90;99.90;;;;;;5072120;28;20040;-74
2021/12/31 04:15:21;;;;;;;5.05;4.13;;;12.90;99.90;;;;;;5071441;28;20049;-72
2021/12/31 04:17:48;;;;;;;5.78;4.50;;;13.00;99.90;;;;;;5071864;28;20090;-72
2021/12/31 04:20:19;;;;;;;5.85;5.18;;;13.00;99.90;;;;;;5071977;28;20130;-71
2021/12/31 04:22:53;;;;;;;5.55;4.30;;;13.00;99.90;;;;;;5071903;28;20044;-72
2021/12/31 04:25:20;;;;;;;7.20;4.80;;;12.90;99.90;;;;;;5071560;28;20093;-72
2021/12/31 04:27:47;;;;;;;5.72;4.47;;;12.90;99.90;;;;;;5072086;28;20114;-72
2021/12/31 04:30:14;;;;;;;5.72;4.65;;;12.90;99.90;;;;;;5072885;28;20106;-74
2021/12/31 04:32:42;;;;;;;4.78;3.88;;;13.00;99.90;;;;;;5072670;28;20040;-74
2021/12/31 04:35:10;;;;;;;6.63;4.93;;;12.90;99.90;;;;;;5072053;28;20497;-73
2021/12/31 04:37:36;;;;;;;7.18;5.70;;;13.00;99.90;;;;;;5072519;28;20114;-72
2021/12/31 04:40:06;;;;;;;5.75;4.10;;;12.90;99.90;;;;;;5072223;28;20071;-73
2021/12/31 04:42:32;;;;;;;6.85;4.50;;;12.90;99.90;;;;;;5072119;28;20044;-72
2021/12/31 04:44:59;;;;;;;6.15;4.60;;;12.90;99.90;;;;;;5071528;28;20048;-74
2021/12/31 04:47:25;;;;;;;8.65;4.60;;;12.80;99.90;;;;;;5075278;28;20044;-74
2021/12/31 04:49:52;;;;;;;3.70;3.30;;;12.80;99.90;;;;;;5075897;28;20078;-74
2021/12/31 04:52:18;;;;;;;4.40;3.97;;;12.80;99.90;;;;;;5075941;28;20080;-74
2021/12/31 04:54:45;;;;;;;5.32;4.20;;;12.70;99.90;;;;;;5075255;28;20040;-73
2021/12/31 04:57:13;;;;;;;6.90;4.85;;;12.70;99.90;;;;;;5075759;28;20079;-74
2021/12/31 04:59:39;;;;;;;7.57;4.93;;;12.70;99.90;;;;;;5075810;28;20149;-73
2021/12/31 05:02:06;;;;;;;5.68;4.22;;;12.60;99.90;;;;;;5075526;28;20040;-73
2021/12/31 05:04:33;;;;;;;5.38;4.05;;;12.60;99.90;;;;;;5075024;28;20512;-74
2021/12/31 05:06:59;;;;;;;5.30;3.08;;;12.60;99.90;;;;;;5075633;28;20044;-74
2021/12/31 05:09:26;;;;;;;6.03;3.63;;;12.50;99.90;;;;;;5075547;28;20467;-74
2021/12/31 05:11:52;;;;;;;6.47;4.20;;;12.50;99.90;;;;;;5075650;28;20044;-74
2021/12/31 05:14:21;;;;;;;4.10;3.55;;;12.50;99.90;;;;;;5074859;28;20397;-72
2021/12/31 05:16:48;;;;;;;6.72;4.05;;;12.50;99.90;;;;;;5075158;28;20565;-72
2021/12/31 05:19:14;;;;;;;7.38;4.45;;;12.50;99.90;;;;;;5074984;28;20106;-72
2021/12/31 05:21:41;;;;;;;4.40;3.00;;;12.50;99.90;;;;;;5075505;28;20098;-71
2021/12/31 05:24:10;;;;;;;3.53;3.15;;;12.50;99.90;;;;;;5074873;28;20068;-73
2021/12/31 05:26:37;;;;;;;5.35;4.03;;;12.50;99.90;;;;;;5074664;28;20044;-73
2021/12/31 05:29:04;;;;;;;6.95;3.63;;;12.40;99.90;;;;;;5075198;28;20044;-72
2021/12/31 05:31:32;;;;;;;3.55;3.15;;;12.40;99.90;;;;;;5074929;28;20101;-71
2021/12/31 05:33:58;;;;;;;3.53;2.90;;;12.50;99.90;;;;;;5074989;28;20114;-71
2021/12/31 05:36:25;;;;;;;6.32;4.18;;;12.50;99.90;;;;;;5074991;28;20044;-71
2021/12/31 05:38:52;;;;;;;4.78;3.38;;;12.50;99.90;;;;;;5074901;28;20052;-72
2021/12/31 05:41:18;;;;;;;3.83;3.28;;;12.40;99.90;;;;;;5075066;28;20506;-73
2021/12/31 05:43:45;;;;;;;4.03;3.50;;;12.40;99.90;;;;;;5074599;28;20105;-74
2021/12/31 05:46:12;;;;;;;3.33;3.03;;;12.50;99.90;;;;;;5074483;28;20080;-74
2021/12/31 05:48:39;;;;;;;3.03;2.60;;;12.50;99.90;;;;;;5074894;28;20049;-74
2021/12/31 05:51:06;;;;;;;2.90;2.60;;;12.60;99.90;;;;;;5074762;28;20045;-74
2021/12/31 05:53:33;;;;;;;3.00;2.70;;;12.60;99.90;;;;;;5074663;28;20072;-74
2021/12/31 05:55:59;;;;;;;3.55;2.90;;;12.70;99.90;;;;;;5074133;28;20049;-71
2021/12/31 05:58:26;;;;;;;4.63;2.95;;;12.70;99.90;;;;;;5074195;28;20067;-72
2021/12/31 06:00:53;;;;;;;4.32;2.97;;;12.70;99.90;;;;;;5074416;28;20067;-71
2021/12/31 06:03:19;;;;;;;2.78;2.42;;;12.70;99.90;;;;;;5074442;28;20044;-73
2021/12/31 06:05:47;;;;;;;2.17;1.98;;;12.70;99.90;;;;;;5073748;28;20101;-73
2021/12/31 06:08:14;;;;;;;7.75;2.83;;;12.80;99.90;;;;;;5074341;28;20040;-72
2021/12/31 06:10:42;;;;;;;3.95;2.33;;;12.80;99.90;;;;;;5074460;28;20044;-74
2021/12/31 06:13:08;;;;;;;3.15;2.85;;;12.80;99.90;;;;;;5074359;28;20068;-73
2021/12/31 06:15:35;;;;;;;6.50;3.10;;;12.80;99.90;;;;;;5074149;28;20041;-74
2021/12/31 06:18:02;;;;;;;3.03;2.05;;;12.80;99.90;;;;;;5074264;28;20048;-73
2021/12/31 06:20:29;;;;;;;2.45;2.05;;;12.80;99.90;;;;;;5074211;28;20106;-75
2021/12/31 06:22:58;;;;;;;3.03;2.58;;;12.80;99.90;;;;;;5074039;28;20044;-73
2021/12/31 06:25:26;;;;;;;4.60;2.55;;;12.80;99.90;;;;;;5073529;28;20049;-72
2021/12/31 06:27:53;;;;;;;3.33;2.67;;;12.80;99.90;;;;;;5074195;28;20070;-73
2021/12/31 06:30:19;;;;;;;2.58;2.38;;;12.90;99.90;;;;;;5074689;28;20094;-73
2021/12/31 06:32:46;;;;;;;4.45;2.83;;;12.90;99.90;;;;;;5074727;28;20147;-73
2021/12/31 06:35:13;;;;;;;4.25;2.72;;;12.90;99.90;;;;;;5073684;28;20056;-72
2021/12/31 06:37:39;;;;;;;3.08;2.40;;;12.90;99.90;;;;;;5073831;28;20083;-74
2021/12/31 06:40:11;;;;;;;3.33;3.00;;;12.80;99.90;;;;;;5073509;28;20492;-75
2021/12/31 06:42:37;;;;;;;3.92;2.63;;;12.90;99.90;;;;;;5074008;28;20049;-74
2021/12/31 06:45:05;;;;;;;3.13;2.88;;;12.90;99.90;;;;;;5074528;28;20654;-76
2021/12/31 06:47:32;;;;;;;3.58;2.70;;;12.90;99.90;;;;;;5073751;28;20049;-74
2021/12/31 06:49:58;;;;;;;3.53;3.20;;;12.90;99.90;;;;;;5073617;28;20493;-74
2021/12/31 06:52:25;;;;;;;4.22;3.78;;;12.90;99.90;;;;;;5073424;28;20550;-73
2021/12/31 06:54:51;;;;;;;4.75;3.47;;;12.90;99.90;;;;;;5073180;28;20044;-73
2021/12/31 06:57:19;;;;;;;4.53;2.78;;;12.90;99.90;;;;;;5073534;28;20045;-74
2021/12/31 06:59:46;;;;;;;3.70;3.40;;;12.90;99.90;;;;;;5073736;28;20094;-73
2021/12/31 07:02:13;;;;;;;3.50;3.30;;;13.00;99.90;;;;;;5073783;28;20045;-76
2021/12/31 07:04:42;;;;;;;3.28;2.97;;;12.90;99.90;;;;;;5072836;28;20053;-74
2021/12/31 07:07:08;;;;;;;4.35;3.42;;;13.00;99.90;;;;;;5073166;28;20041;-74
2021/12/31 07:09:35;;;;;;;4.70;3.80;;;12.90;99.90;;;;;;5072697;28;20474;-75
2021/12/31 07:12:03;;;;;;;3.55;3.15;;;13.00;99.90;;;;;;5072793;28;20098;-74
2021/12/31 07:14:31;;;;;;;4.32;3.13;;;13.00;99.90;;;;;;5072331;28;20098;-74
2021/12/31 07:16:57;;;;;;;3.70;3.40;;;13.10;99.90;;;;;;5072870;28;20048;-74
2021/12/31 07:19:24;;;;;;;3.55;3.08;;;13.00;99.90;;;;;;5072951;28;20079;-74
2021/12/31 07:21:50;;;;;;;4.10;3.33;;;13.00;99.90;;;;;;5072676;28;20053;-73
2021/12/31 07:24:17;;;;;;;4.10;3.40;;;13.00;99.90;;;;;;5072457;28;20045;-73
2021/12/31 07:26:44;;;;;;;5.55;3.17;;;13.00;99.90;;;;;;5072880;28;20071;-73
2021/12/31 07:29:10;;;;;;;3.83;2.85;;;13.00;99.90;;;;;;5072810;28;20097;-73
2021/12/31 07:31:38;;;;;;;5.38;3.40;;;13.00;99.90;;;;;;5072865;28;20094;-73
2021/12/31 07:34:05;;;;;;;3.83;2.78;;;13.00;99.90;;;;;;5072620;28;20091;-73
2021/12/31 07:36:31;;;;;;;4.28;3.20;;;13.00;99.90;;;;;;5072411;28;20054;-72
2021/12/31 07:39:03;;;;;;;4.53;4.00;;;13.00;99.90;;;;;;5072563;28;20055;-73
2021/12/31 07:41:30;;;;;;;4.07;2.67;;;13.00;99.90;;;;;;5072584;28;20048;-73
2021/12/31 07:43:56;;;;;;;3.50;3.20;;;13.00;99.90;;;;;;5072285;28;20040;-72
2021/12/31 07:46:23;;;;;;;3.67;3.38;;;13.00;99.90;;;;;;5072116;28;20048;-73
2021/12/31 07:48:51;;;;;;;3.30;3.00;;;13.00;99.90;;;;;;5072782;28;20044;-74
2021/12/31 07:51:18;;;;;;;2.95;2.75;;;13.00;99.90;;;;;;5072544;28;20045;-73
2021/12/31 07:53:45;;;;;;;3.42;3.13;;;13.00;99.90;;;;;;5072702;28;20044;-73
2021/12/31 07:56:11;;;;;;;3.17;2.95;;;13.00;99.90;;;;;;5071943;28;20068;-73
2021/12/31 07:58:38;;;;;;;2.92;2.60;;;13.00;99.90;;;;;;5072844;28;20044;-73
2021/12/31 08:01:05;;;;;;;3.00;2.80;;;13.00;99.90;;;;;;5072465;28;20098;-75
2021/12/31 08:03:33;;;;;;;4.85;3.65;;;13.00;99.90;;;;;;5073065;28;20048;-73
2021/12/31 08:06:01;;;;;;;4.00;2.70;;;13.10;99.90;;;;;;5072318;28;20409;-73
2021/12/31 08:08:27;;;;;;;3.30;3.00;;;13.10;99.90;;;;;;5073070;28;20045;-73
2021/12/31 08:10:54;;;;;;;4.80;3.40;;;13.00;99.90;;;;;;5074058;28;20048;-72
2021/12/31 08:13:24;;;;;;;8.57;3.80;;;13.10;99.90;;;;;;5073093;28;20052;-73
2021/12/31 08:15:51;;;;;;;3.08;2.80;;;13.10;99.90;;;;;;5071512;28;20048;-75
2021/12/31 08:18:17;;;;;;;3.10;2.70;;;13.10;99.90;;;;;;5071821;28;20048;-72
2021/12/31 08:20:44;;;;;;;2.90;2.70;;;13.10;99.90;;;;;;5071156;28;20421;-73
2021/12/31 08:23:13;;;;;;;3.72;3.10;;;13.10;99.90;;;;;;5072097;28;20068;-74
2021/12/31 08:25:40;;;;;;;3.10;2.80;;;13.00;99.90;;;;;;5071252;28;20048;-72
2021/12/31 08:28:07;;;;;;;4.60;2.88;;;13.00;99.90;;;;;;5071880;28;20106;-74
2021/12/31 08:30:34;;;;;;;4.43;2.75;;;13.00;99.90;;;;;;5071833;28;20079;-73
2021/12/31 08:33:01;;;;;;;4.22;2.85;;;12.90;99.90;;;;;;5072112;28;20044;-74
2021/12/31 08:35:31;;;;;;;3.78;3.40;;;12.80;99.90;;;;;;5071265;28;20408;-75
2021/12/31 08:37:57;;;;;;;5.15;3.35;;;12.80;99.90;;;;;;5072045;28;20048;-73
2021/12/31 08:40:26;;;;;;;3.20;2.90;;;12.80;99.90;;;;;;5072302;28;20049;-74
2021/12/31 08:42:53;;;;;;;2.97;2.67;;;12.80;99.90;;;;;;5072458;28;20109;-74
2021/12/31 08:45:20;;;;;;;4.97;2.58;;;12.80;99.90;;;;;;5072914;28;20086;-74
2021/12/31 08:47:47;;;;;;;4.78;2.33;;;12.80;99.90;;;;;;5080281;28;20079;-74
2021/12/31 08:50:13;;;;;;;2.85;2.15;;;12.80;99.90;;;;;;5072363;28;20049;-75
2021/12/31 08:52:40;;;;;;;3.03;2.30;;;12.80;99.90;;;;;;5072191;28;20056;-75
2021/12/31 08:55:09;;;;;;;2.35;2.25;;;12.80;99.90;;;;;;5071540;28;20044;-74
2021/12/31 08:57:37;;;;;;;3.67;2.58;;;12.80;99.90;;;;;;5071922;28;20048;-75
2021/12/31 09:00:05;;;;;;;2.00;1.80;;;12.70;99.90;;;;;;5072063;28;20049;-74
2021/12/31 09:02:31;;;;;;;2.22;2.10;;;12.70;99.90;;;;;;5071351;28;20102;-73
2021/12/31 09:04:58;;;;;;;7.35;3.20;;;12.80;99.90;;;;;;5071106;28;20106;-73
2021/12/31 09:07:26;;;;;;;3.83;2.20;;;12.80;99.90;;;;;;5071763;28;20102;-74
2021/12/31 09:09:53;;;;;;;3.53;2.13;;;12.80;99.90;;;;;;5071874;28;20052;-72
2021/12/31 09:12:19;;;;;;;2.55;2.35;;;12.80;99.90;;;;;;5071504;28;20501;-74
2021/12/31 09:14:47;;;;;;;2.20;1.92;;;12.80;99.90;;;;;;5071170;28;20106;-74
2021/12/31 09:17:14;;;;;;;3.22;2.78;;;12.80;99.90;;;;;;5071616;28;20114;-73
2021/12/31 09:19:41;;;;;;;2.13;1.98;;;12.90;99.90;;;;;;5071640;28;20053;-73
2021/12/31 09:22:09;;;;;;;2.33;2.13;;;12.80;99.90;;;;;;5071321;28;20052;-72
2021/12/31 09:24:36;;;;;;;2.25;2.13;;;12.80;99.90;;;;;;5071028;28;20041;-73
2021/12/31 09:27:02;;;;;;;3.03;2.08;;;12.90;99.90;;;;;;5071715;28;20044;-73
2021/12/31 09:29:32;;;;;;;3.20;2.13;;;13.00;99.90;;;;;;5071302;28;20041;-73
2021/12/31 09:32:00;;;;;;;4.18;2.40;;;12.90;99.90;;;;;;5072638;28;20049;-74
2021/12/31 09:34:27;;;;;;;2.17;1.98;;;12.90;99.90;;;;;;5074620;28;20094;-73
2021/12/31 09:36:54;;;;;;;2.38;2.17;;;12.90;99.90;;;;;;5074976;28;20098;-73
2021/12/31 09:39:20;;;;;;;2.17;1.98;;;13.00;99.90;;;;;;5074869;28;20052;-72
2021/12/31 09:41:47;;;;;;;2.55;2.25;;;13.00;99.90;;;;;;5075149;28;20052;-73
2021/12/31 09:44:15;;;;;;;3.30;3.00;;;13.00;99.90;;;;;;5074491;28;20041;-73
2021/12/31 09:46:42;;;;;;;2.42;1.73;;;13.00;99.90;;;;;;5074696;28;20068;-75
2021/12/31 09:49:10;;;;;;;2.97;2.63;;;13.00;99.90;;;;;;5074866;28;20060;-72
2021/12/31 09:51:41;;;;;;;2.45;1.90;;;13.00;99.90;;;;;;5074515;28;20416;-72
2021/12/31 09:54:07;;;;;;;2.42;2.22;;;13.00;99.90;;;;;;5074173;28;20044;-72
2021/12/31 09:56:39;;;;;;;2.95;2.65;;;13.00;99.90;;;;;;5074342;28;20105;-75
2021/12/31 09:59:05;;;;;;;2.75;2.05;;;13.00;99.90;;;;;;5074724;28;20067;-76
2021/12/31 10:01:32;;;;;;;2.47;1.75;;;13.00;99.90;;;;;;5074119;28;20098;-75
2021/12/31 10:04:00;;;;;;;1.98;1.83;;;13.10;99.90;;;;;;5074206;28;20052;-75
2021/12/31 10:06:28;;;;;;;2.28;2.08;;;13.10;99.90;;;;;;5074237;28;20416;-73
2021/12/31 10:08:59;;;;;;;3.47;2.00;;;13.10;99.90;;;;;;5074302;28;20110;-73
2021/12/31 10:11:28;;;;;;;1.95;1.85;;;13.20;99.90;;;;;;5074672;28;20048;-77
2021/12/31 10:13:57;;;;;;;36.45;19.98;;;13.20;99.90;;;;;;5074133;28;20102;-80
2021/12/31 10:16:26;;;;;;;3.17;2.95;;;13.20;99.90;;;;;;5073822;28;20098;-75
2021/12/31 10:19:05;;;;;;;4.70;3.35;;;13.10;99.90;;;;;;5073784;28;20079;-76
2021/12/31 10:21:41;;;;;;;1.60;1.50;;;13.10;99.90;;;;;;5073844;28;20672;-75
2021/12/31 10:24:21;;;;;;;2.75;1.90;;;13.10;99.90;;;;;;5073515;28;20048;-76
2021/12/31 10:26:48;;;;;;;1.97;1.50;;;13.10;99.90;;;;;;5073802;28;20045;-74
2021/12/31 10:29:15;;;;;;;1.58;1.48;;;13.10;99.90;;;;;;5073837;28;20554;-74
2021/12/31 10:31:43;;;;;;;4.28;1.83;;;13.10;99.90;;;;;;5074049;28;20122;-75
2021/12/31 10:34:25;;;;;;;1.95;1.73;;;13.10;99.90;;;;;;5073673;28;20408;-74
2021/12/31 10:36:56;;;;;;;1.42;1.33;;;13.10;99.90;;;;;;5073878;28;20361;-74
2021/12/31 10:39:32;;;;;;;1.35;1.25;;;13.00;99.90;;;;;;5074030;28;20048;-73
2021/12/31 10:42:09;;;;;;;1.60;1.50;;;13.00;99.90;;;;;;5073737;28;20393;-75
2021/12/31 10:44:44;;;;;;;1.45;1.35;;;13.10;99.90;;;;;;5072444;28;20041;-74
2021/12/31 10:47:12;;;;;;;1.73;1.42;;;13.00;99.90;;;;;;5074043;28;20098;-75
2021/12/31 10:50:08;;;;;;;2.22;0.95;;;13.00;99.90;;;;;;5073794;28;20758;-74
2021/12/31 10:52:39;;;;;;;3.47;3.17;;;12.90;99.90;;;;;;5073996;28;20413;-75
2021/12/31 10:55:16;;;;;;;;;;;13.00;99.90;;;;;;5073651;28;20074;-71
2021/12/31 10:57:44;;;;;;;1.00;0.93;;;13.00;99.90;;;;;;5073436;28;19931;-74
2021/12/31 11:00:12;;;;;;;2.10;1.10;;;13.00;99.90;;;;;;5073581;28;20398;-74
2021/12/31 11:02:40;;;;;;;1.48;1.38;;;13.00;99.90;;;;;;5073264;28;20090;-72
2021/12/31 11:05:08;;;;;;;1.25;0.80;;;13.00;99.90;;;;;;5072897;28;20048;-73
2021/12/31 11:07:37;;;;;;;2.30;1.15;;;13.00;99.90;;;;;;5073120;28;20713;-75
2021/12/31 11:10:05;;;;;;;1.25;1.10;;;13.00;99.90;;;;;;5073089;28;20049;-74
2021/12/31 11:12:32;;;;;;;1.80;1.17;;;13.10;99.90;;;;;;5073244;28;20045;-75
2021/12/31 11:14:59;;;;;;;2.20;1.35;;;13.10;99.90;;;;;;5072295;28;20302;-74
2021/12/31 11:17:27;;;;;;;1.23;1.10;;;13.10;99.90;;;;;;5073162;28;20052;-75
2021/12/31 11:19:55;;;;;;;2.08;1.70;;;13.10;99.90;;;;;;5072770;28;20121;-73
2021/12/31 11:22:25;;;;;;;1.85;1.10;;;13.20;99.90;;;;;;5072935;28;20044;-74
2021/12/31 11:24:53;;;;;;;1.17;1.08;;;13.20;99.90;;;;;;5072465;28;20063;-74
2021/12/31 11:27:30;;;;;;;0.82;0.82;;;13.20;99.90;;;;;;5072956;28;20041;-74
2021/12/31 11:29:58;;;;;;;1.30;1.20;;;13.20;99.90;;;;;;5073056;28;20098;-76
2021/12/31 11:32:58;;;;;;;1.85;1.40;;;13.20;99.90;;;;;;5072895;28;20072;-75
2021/12/31 11:35:30;;;;;;;1.40;0.98;;;13.30;99.90;;;;;;5072206;28;20105;-72
2021/12/31 11:37:57;;;;;;;0.80;0.80;;;13.30;99.90;;;;;;5072605;28;20405;-74
2021/12/31 11:40:32;;;;;;;2.20;1.63;;;13.30;99.90;;;;;;5072852;28;20090;-74
2021/12/31 11:43:15;;;;;;;1.20;1.05;;;13.30;99.90;;;;;;5072775;28;20098;-73
2021/12/31 11:45:42;;;;;;;4.45;1.30;;;13.30;99.90;;;;;;5072059;28;20076;-75
2021/12/31 11:48:42;;;;;;;1.00;1.00;;;13.30;99.90;;;;;;5072565;28;20181;-73
2021/12/31 11:51:09;;;;;;;0.80;0.80;;;13.30;99.90;;;;;;5072207;28;20493;-74
2021/12/31 11:54:16;;;;;;;1.17;1.10;;;13.30;99.90;;;;;;5075914;28;20097;-74
2021/12/31 11:56:59;;;;;;;1.70;1.30;;;13.30;99.90;;;;;;5073086;28;20102;-74
2021/12/31 11:59:54;;;;;;;1.45;1.10;;;13.30;99.90;;;;;;5075504;28;20055;-75
2021/12/31 12:02:32;;;;;;;1.38;1.27;;;13.30;99.90;;;;;;5072613;28;20075;-74
2021/12/31 12:05:14;;;;;;;1.60;1.35;;;13.30;99.90;;;;;;5071562;28;20106;-75
2021/12/31 12:07:49;;;;;;;2.65;1.23;;;13.30;99.90;;;;;;5072286;28;20052;-74
2021/12/31 12:10:38;;;;;;;2.40;1.20;;;13.20;99.90;;;;;;5072269;28;20109;-74
2021/12/31 12:13:22;;;;;;;4.00;1.30;;;13.20;99.90;;;;;;5072057;28;20520;-73
2021/12/31 12:15:50;;;;;;;1.73;1.20;;;13.20;99.90;;;;;;5071755;28;20412;-74
2021/12/31 12:18:53;;;;;;;0.93;0.93;;;13.20;99.90;;;;;;5072131;28;20044;-72
2021/12/31 12:21:33;;;;;;;2.28;1.33;;;13.30;99.90;;;;;;5072355;28;20045;-75
2021/12/31 12:24:00;;;;;;;2.28;1.10;;;13.20;99.90;;;;;;5071681;28;20088;-72
2021/12/31 12:26:28;;;;;;;1.40;1.30;;;13.20;99.90;;;;;;5072247;28;20072;-72
2021/12/31 12:28:55;;;;;;;2.88;1.33;;;13.20;99.90;;;;;;5072387;28;20094;-72
2021/12/31 12:31:22;;;;;;;3.97;1.33;;;13.20;99.90;;;;;;5072509;28;20465;-74
2021/12/31 12:33:57;;;;;;;2.78;1.27;;;13.20;99.90;;;;;;5072410;28;20094;-73
2021/12/31 12:36:25;;;;;;;2.17;1.98;;;13.20;99.90;;;;;;5071589;28;20469;-73
2021/12/31 12:39:01;;;;;;;1.40;0.98;;;13.30;99.90;;;;;;5071926;28;20145;-73
2021/12/31 12:41:29;;;;;;;1.42;1.25;;;13.30;99.90;;;;;;5071959;28;20049;-73
2021/12/31 12:43:57;;;;;;;3.65;1.33;;;13.30;99.90;;;;;;5071628;28;20048;-73
2021/12/31 12:46:24;;;;;;;1.23;1.17;;;13.30;99.90;;;;;;5071512;28;20551;-73
2021/12/31 12:48:54;;;;;;;1.00;1.00;;;13.30;99.90;;;;;;5071795;28;20080;-73
2021/12/31 12:51:27;;;;;;;1.17;1.08;;;13.40;99.90;;;;;;5072154;28;20047;-72
2021/12/31 12:53:54;;;;;;;2.65;1.10;;;13.50;99.90;;;;;;5071926;28;20063;-73
2021/12/31 12:56:22;;;;;;;1.30;1.20;;;13.50;99.90;;;;;;5071550;28;20049;-72